sensor_id;sensor_type;location;lat;lon;timestamp;P1;durP1;ratioP1;P2;durP2;ratioP2
71423;SDS011;59240;51.370;-0.486;2023-11-21T00:00:05;4.88;;;1.40;;
71423;SDS011;59240;51.370;-0.486;2023-11-21T00:05:08;2.38;;;1.58;;
71423;SDS011;59240;51.370;-0.486;2023-11-21T00:10:07;3.22;;;1.90;;
71423;SDS011;59240;51.370;-0.486;2023-11-21T00:15:05;3.63;;;1.88;;
71423;SDS011;59240;51.370;-0.486;2023-11-21T00:20:02;2.70;;;1.80;;
71423;SDS011;59240;51.370;-0.486;2023-11-21T00:25:02;4.95;;;2.65;;
71423;SDS011;59240;51.370;-0.486;2023-11-21T00:30:00;4.20;;;2.72;;
71423;SDS011;59240;51.370;-0.486;2023-11-21T00:34:57;3.83;;;2.50;;
71423;SDS011;59240;51.370;-0.486;2023-11-21T00:39:55;3.53;;;2.67;;
71423;SDS011;59240;51.370;-0.486;2023-11-21T00:44:56;3.80;;;2.53;;
71423;SDS011;59240;51.370;-0.486;2023-11-21T00:49:52;3.05;;;2.35;;
71423;SDS011;59240;51.370;-0.486;2023-11-21T00:54:49;9.48;;;2.70;;
71423;SDS011;59240;51.370;-0.486;2023-11-21T00:59:47;5.68;;;2.58;;
71423;SDS011;59240;51.370;-0.486;2023-11-21T01:04:45;5.72;;;2.72;;
71423;SDS011;59240;51.370;-0.486;2023-11-21T01:09:42;3.65;;;2.25;;
71423;SDS011;59240;51.370;-0.486;2023-11-21T01:14:40;8.02;;;3.22;;
71423;SDS011;59240;51.370;-0.486;2023-11-21T01:19:37;6.65;;;2.75;;
71423;SDS011;59240;51.370;-0.486;2023-11-21T01:24:34;4.85;;;3.13;;
71423;SDS011;59240;51.370;-0.486;2023-11-21T01:29:31;6.32;;;3.22;;
71423;SDS011;59240;51.370;-0.486;2023-11-21T01:34:27;5.35;;;3.10;;
71423;SDS011;59240;51.370;-0.486;2023-11-21T01:39:25;6.25;;;3.42;;
71423;SDS011;59240;51.370;-0.486;2023-11-21T01:44:22;6.20;;;3.90;;
71423;SDS011;59240;51.370;-0.486;2023-11-21T01:49:22;6.63;;;3.58;;
71423;SDS011;59240;51.370;-0.486;2023-11-21T01:54:19;7.53;;;4.25;;
71423;SDS011;59240;51.370;-0.486;2023-11-21T01:59:20;6.00;;;3.60;;
71423;SDS011;59240;51.370;-0.486;2023-11-21T02:04:18;9.65;;;4.40;;
71423;SDS011;59240;51.370;-0.486;2023-11-21T02:09:22;6.15;;;4.13;;
71423;SDS011;59240;51.370;-0.486;2023-11-21T02:14:22;5.93;;;4.05;;
71423;SDS011;59240;51.370;-0.486;2023-11-21T02:19:19;6.60;;;3.55;;
71423;SDS011;59240;51.370;-0.486;2023-11-21T02:24:29;8.80;;;4.10;;
71423;SDS011;59240;51.370;-0.486;2023-11-21T02:29:26;7.15;;;3.78;;
71423;SDS011;59240;51.370;-0.486;2023-11-21T02:34:24;6.15;;;4.05;;
71423;SDS011;59240;51.370;-0.486;2023-11-21T02:39:22;5.55;;;3.00;;
71423;SDS011;59240;51.370;-0.486;2023-11-21T02:44:19;7.57;;;3.72;;
71423;SDS011;59240;51.370;-0.486;2023-11-21T02:49:16;7.28;;;3.25;;
71423;SDS011;59240;51.370;-0.486;2023-11-21T02:54:12;5.57;;;3.60;;
71423;SDS011;59240;51.370;-0.486;2023-11-21T02:59:11;5.78;;;3.22;;
71423;SDS011;59240;51.370;-0.486;2023-11-21T03:04:08;5.60;;;3.13;;
71423;SDS011;59240;51.370;-0.486;2023-11-21T03:09:06;6.10;;;3.00;;
71423;SDS011;59240;51.370;-0.486;2023-11-21T03:14:03;6.53;;;2.78;;
71423;SDS011;59240;51.370;-0.486;2023-11-21T03:19:00;5.75;;;3.08;;
71423;SDS011;59240;51.370;-0.486;2023-11-21T03:23:56;5.82;;;3.60;;
71423;SDS011;59240;51.370;-0.486;2023-11-21T03:28:53;5.80;;;3.13;;
71423;SDS011;59240;51.370;-0.486;2023-11-21T03:33:50;3.75;;;2.55;;
71423;SDS011;59240;51.370;-0.486;2023-11-21T03:38:47;6.43;;;3.08;;
71423;SDS011;59240;51.370;-0.486;2023-11-21T03:43:44;3.67;;;1.85;;
71423;SDS011;59240;51.370;-0.486;2023-11-21T03:48:41;5.80;;;2.22;;
71423;SDS011;59240;51.370;-0.486;2023-11-21T03:53:38;2.20;;;1.25;;
71423;SDS011;59240;51.370;-0.486;2023-11-21T03:58:35;1.38;;;0.98;;
71423;SDS011;59240;51.370;-0.486;2023-11-21T04:03:32;5.28;;;1.50;;
71423;SDS011;59240;51.370;-0.486;2023-11-21T04:08:29;2.47;;;1.40;;
71423;SDS011;59240;51.370;-0.486;2023-11-21T04:13:25;1.40;;;1.05;;
71423;SDS011;59240;51.370;-0.486;2023-11-21T04:18:25;2.25;;;1.80;;
71423;SDS011;59240;51.370;-0.486;2023-11-21T04:23:22;0.93;;;0.70;;
71423;SDS011;59240;51.370;-0.486;2023-11-21T04:28:18;1.92;;;0.85;;
71423;SDS011;59240;51.370;-0.486;2023-11-21T04:33:16;1.27;;;0.80;;
71423;SDS011;59240;51.370;-0.486;2023-11-21T04:38:13;1.95;;;1.00;;
71423;SDS011;59240;51.370;-0.486;2023-11-21T04:43:10;1.70;;;1.00;;
71423;SDS011;59240;51.370;-0.486;2023-11-21T04:48:07;1.65;;;0.63;;
71423;SDS011;59240;51.370;-0.486;2023-11-21T04:53:05;2.00;;;0.70;;
71423;SDS011;59240;51.370;-0.486;2023-11-21T04:58:02;1.60;;;0.95;;
71423;SDS011;59240;51.370;-0.486;2023-11-21T05:03:00;1.13;;;0.70;;
71423;SDS011;59240;51.370;-0.486;2023-11-21T05:08:01;0.82;;;0.77;;
71423;SDS011;59240;51.370;-0.486;2023-11-21T05:12:58;1.13;;;0.75;;
71423;SDS011;59240;51.370;-0.486;2023-11-21T05:17:55;1.50;;;0.63;;
71423;SDS011;59240;51.370;-0.486;2023-11-21T05:22:56;1.95;;;0.60;;
71423;SDS011;59240;51.370;-0.486;2023-11-21T05:27:55;1.40;;;1.00;;
71423;SDS011;59240;51.370;-0.486;2023-11-21T05:32:52;1.40;;;0.93;;
71423;SDS011;59240;51.370;-0.486;2023-11-21T05:37:49;1.67;;;1.00;;
71423;SDS011;59240;51.370;-0.486;2023-11-21T05:42:46;1.33;;;0.88;;
71423;SDS011;59240;51.370;-0.486;2023-11-21T05:47:44;2.67;;;1.20;;
71423;SDS011;59240;51.370;-0.486;2023-11-21T05:52:45;5.30;;;1.30;;
71423;SDS011;59240;51.370;-0.486;2023-11-21T05:57:45;3.45;;;1.02;;
71423;SDS011;59240;51.370;-0.486;2023-11-21T06:02:42;2.28;;;0.95;;
71423;SDS011;59240;51.370;-0.486;2023-11-21T06:07:42;4.68;;;1.10;;
71423;SDS011;59240;51.370;-0.486;2023-11-21T06:12:42;2.80;;;0.80;;
71423;SDS011;59240;51.370;-0.486;2023-11-21T06:17:40;3.40;;;1.15;;
71423;SDS011;59240;51.370;-0.486;2023-11-21T06:22:38;5.53;;;1.23;;
71423;SDS011;59240;51.370;-0.486;2023-11-21T06:27:40;3.40;;;1.40;;
71423;SDS011;59240;51.370;-0.486;2023-11-21T06:32:38;2.35;;;0.95;;
71423;SDS011;59240;51.370;-0.486;2023-11-21T06:37:36;3.78;;;1.13;;
71423;SDS011;59240;51.370;-0.486;2023-11-21T06:42:33;2.78;;;0.90;;
71423;SDS011;59240;51.370;-0.486;2023-11-21T06:47:34;2.33;;;0.80;;
71423;SDS011;59240;51.370;-0.486;2023-11-21T06:52:32;2.15;;;1.13;;
71423;SDS011;59240;51.370;-0.486;2023-11-21T06:57:29;1.35;;;0.80;;
71423;SDS011;59240;51.370;-0.486;2023-11-21T07:02:26;1.73;;;0.88;;
71423;SDS011;59240;51.370;-0.486;2023-11-21T07:07:23;1.65;;;0.70;;
71423;SDS011;59240;51.370;-0.486;2023-11-21T07:12:20;1.60;;;0.90;;
71423;SDS011;59240;51.370;-0.486;2023-11-21T07:17:20;0.70;;;0.55;;
71423;SDS011;59240;51.370;-0.486;2023-11-21T07:22:19;2.35;;;0.90;;
71423;SDS011;59240;51.370;-0.486;2023-11-21T07:27:18;1.02;;;0.70;;
71423;SDS011;59240;51.370;-0.486;2023-11-21T07:32:15;2.65;;;0.73;;
71423;SDS011;59240;51.370;-0.486;2023-11-21T07:37:15;1.52;;;0.80;;
71423;SDS011;59240;51.370;-0.486;2023-11-21T07:42:12;2.72;;;0.80;;
71423;SDS011;59240;51.370;-0.486;2023-11-21T07:47:09;1.70;;;1.02;;
71423;SDS011;59240;51.370;-0.486;2023-11-21T07:52:06;1.67;;;1.00;;
71423;SDS011;59240;51.370;-0.486;2023-11-21T07:57:03;2.72;;;0.80;;
71423;SDS011;59240;51.370;-0.486;2023-11-21T08:02:00;3.28;;;1.45;;
71423;SDS011;59240;51.370;-0.486;2023-11-21T08:06:57;2.55;;;1.20;;
71423;SDS011;59240;51.370;-0.486;2023-11-21T08:11:54;1.77;;;1.00;;
71423;SDS011;59240;51.370;-0.486;2023-11-21T08:16:51;2.75;;;1.02;;
71423;SDS011;59240;51.370;-0.486;2023-11-21T08:21:48;1.67;;;0.90;;
71423;SDS011;59240;51.370;-0.486;2023-11-21T08:26:45;1.05;;;0.63;;
71423;SDS011;59240;51.370;-0.486;2023-11-21T08:31:42;1.33;;;0.65;;
71423;SDS011;59240;51.370;-0.486;2023-11-21T08:36:43;0.82;;;0.70;;
71423;SDS011;59240;51.370;-0.486;2023-11-21T08:41:40;1.30;;;0.80;;
71423;SDS011;59240;51.370;-0.486;2023-11-21T08:46:37;4.72;;;0.98;;
71423;SDS011;59240;51.370;-0.486;2023-11-21T08:51:38;2.33;;;0.95;;
71423;SDS011;59240;51.370;-0.486;2023-11-21T08:56:34;2.25;;;0.70;;
71423;SDS011;59240;51.370;-0.486;2023-11-21T09:01:32;1.08;;;0.60;;
71423;SDS011;59240;51.370;-0.486;2023-11-21T09:06:29;0.80;;;0.63;;
71423;SDS011;59240;51.370;-0.486;2023-11-21T09:11:26;3.22;;;0.90;;
71423;SDS011;59240;51.370;-0.486;2023-11-21T09:16:27;2.35;;;0.70;;
71423;SDS011;59240;51.370;-0.486;2023-11-21T09:21:24;1.02;;;0.73;;
71423;SDS011;59240;51.370;-0.486;2023-11-21T09:26:22;3.33;;;0.90;;
71423;SDS011;59240;51.370;-0.486;2023-11-21T09:31:18;2.63;;;0.60;;
71423;SDS011;59240;51.370;-0.486;2023-11-21T09:36:19;1.20;;;1.10;;
71423;SDS011;59240;51.370;-0.486;2023-11-21T09:41:21;2.58;;;0.73;;
71423;SDS011;59240;51.370;-0.486;2023-11-21T09:46:26;1.83;;;0.60;;
71423;SDS011;59240;51.370;-0.486;2023-11-21T09:51:24;0.60;;;0.50;;
71423;SDS011;59240;51.370;-0.486;2023-11-21T09:56:26;1.35;;;0.90;;
71423;SDS011;59240;51.370;-0.486;2023-11-21T10:01:23;1.23;;;0.65;;
71423;SDS011;59240;51.370;-0.486;2023-11-21T10:06:22;2.28;;;1.10;;
71423;SDS011;59240;51.370;-0.486;2023-11-21T10:11:25;3.78;;;1.08;;
71423;SDS011;59240;51.370;-0.486;2023-11-21T10:16:23;1.92;;;0.95;;
71423;SDS011;59240;51.370;-0.486;2023-11-21T10:21:22;1.90;;;1.08;;
71423;SDS011;59240;51.370;-0.486;2023-11-21T10:26:20;0.90;;;0.70;;
71423;SDS011;59240;51.370;-0.486;2023-11-21T10:31:26;1.50;;;1.17;;
71423;SDS011;59240;51.370;-0.486;2023-11-21T10:36:27;1.63;;;1.02;;
71423;SDS011;59240;51.370;-0.486;2023-11-21T10:41:24;2.08;;;0.70;;
71423;SDS011;59240;51.370;-0.486;2023-11-21T10:46:21;2.08;;;1.00;;
71423;SDS011;59240;51.370;-0.486;2023-11-21T10:51:20;2.05;;;1.00;;
71423;SDS011;59240;51.370;-0.486;2023-11-21T10:56:22;0.88;;;0.70;;
71423;SDS011;59240;51.370;-0.486;2023-11-21T11:01:21;1.05;;;0.70;;
71423;SDS011;59240;51.370;-0.486;2023-11-21T11:06:21;3.53;;;1.33;;
71423;SDS011;59240;51.370;-0.486;2023-11-21T11:11:22;2.78;;;1.13;;
71423;SDS011;59240;51.370;-0.486;2023-11-21T11:16:19;1.50;;;0.57;;
71423;SDS011;59240;51.370;-0.486;2023-11-21T11:21:23;1.52;;;1.00;;
71423;SDS011;59240;51.370;-0.486;2023-11-21T11:37:06;1.10;;;0.60;;
71423;SDS011;59240;51.370;-0.486;2023-11-21T11:42:13;1.65;;;0.95;;
71423;SDS011;59240;51.370;-0.486;2023-11-21T11:47:15;3.30;;;0.80;;
71423;SDS011;59240;51.370;-0.486;2023-11-21T11:57:35;0.98;;;0.80;;
71423;SDS011;59240;51.370;-0.486;2023-11-21T12:02:32;2.47;;;1.10;;
71423;SDS011;59240;51.370;-0.486;2023-11-21T12:07:39;2.00;;;0.95;;
71423;SDS011;59240;51.370;-0.486;2023-11-21T12:12:41;1.23;;;1.08;;
71423;SDS011;59240;51.370;-0.486;2023-11-21T12:17:42;4.95;;;1.10;;
71423;SDS011;59240;51.370;-0.486;2023-11-21T12:22:47;2.85;;;1.13;;
71423;SDS011;59240;51.370;-0.486;2023-11-21T12:27:46;2.33;;;1.10;;
71423;SDS011;59240;51.370;-0.486;2023-11-21T12:32:50;4.53;;;1.45;;
71423;SDS011;59240;51.370;-0.486;2023-11-21T12:37:51;3.17;;;1.17;;
71423;SDS011;59240;51.370;-0.486;2023-11-21T12:42:49;3.30;;;1.70;;
71423;SDS011;59240;51.370;-0.486;2023-11-21T12:47:48;1.58;;;1.08;;
71423;SDS011;59240;51.370;-0.486;2023-11-21T12:52:51;3.85;;;1.35;;
71423;SDS011;59240;51.370;-0.486;2023-11-21T12:57:51;3.45;;;1.55;;
71423;SDS011;59240;51.370;-0.486;2023-11-21T13:02:51;1.67;;;1.08;;
71423;SDS011;59240;51.370;-0.486;2023-11-21T13:07:50;5.88;;;2.00;;
71423;SDS011;59240;51.370;-0.486;2023-11-21T13:12:51;3.28;;;1.67;;
71423;SDS011;59240;51.370;-0.486;2023-11-21T13:17:48;1.55;;;0.75;;
71423;SDS011;59240;51.370;-0.486;2023-11-21T13:22:47;0.95;;;0.50;;
71423;SDS011;59240;51.370;-0.486;2023-11-21T13:27:45;1.88;;;0.52;;
71423;SDS011;59240;51.370;-0.486;2023-11-21T13:32:45;3.05;;;0.70;;
71423;SDS011;59240;51.370;-0.486;2023-11-21T13:37:42;1.17;;;0.60;;
71423;SDS011;59240;51.370;-0.486;2023-11-21T13:42:41;1.40;;;0.50;;
71423;SDS011;59240;51.370;-0.486;2023-11-21T13:47:39;1.05;;;0.15;;
71423;SDS011;59240;51.370;-0.486;2023-11-21T13:52:36;3.17;;;0.77;;
71423;SDS011;59240;51.370;-0.486;2023-11-21T13:57:35;2.70;;;0.60;;
71423;SDS011;59240;51.370;-0.486;2023-11-21T14:02:32;0.95;;;0.45;;
71423;SDS011;59240;51.370;-0.486;2023-11-21T14:07:36;0.70;;;0.40;;
71423;SDS011;59240;51.370;-0.486;2023-11-21T14:12:34;1.67;;;0.40;;
71423;SDS011;59240;51.370;-0.486;2023-11-21T14:17:35;2.42;;;0.60;;
71423;SDS011;59240;51.370;-0.486;2023-11-21T14:22:34;2.85;;;0.60;;
71423;SDS011;59240;51.370;-0.486;2023-11-21T14:27:31;2.70;;;1.02;;
71423;SDS011;59240;51.370;-0.486;2023-11-21T14:32:31;7.57;;;1.17;;
71423;SDS011;59240;51.370;-0.486;2023-11-21T14:37:28;6.50;;;0.98;;
71423;SDS011;59240;51.370;-0.486;2023-11-21T14:42:25;3.42;;;1.00;;
71423;SDS011;59240;51.370;-0.486;2023-11-21T14:47:26;5.00;;;1.35;;
71423;SDS011;59240;51.370;-0.486;2023-11-21T14:52:24;3.03;;;0.52;;
71423;SDS011;59240;51.370;-0.486;2023-11-21T14:57:33;4.82;;;1.02;;
71423;SDS011;59240;51.370;-0.486;2023-11-21T15:02:30;2.65;;;1.25;;
71423;SDS011;59240;51.370;-0.486;2023-11-21T15:07:46;5.38;;;0.80;;
71423;SDS011;59240;51.370;-0.486;2023-11-21T15:12:45;5.07;;;0.65;;
71423;SDS011;59240;51.370;-0.486;2023-11-21T15:17:42;7.82;;;1.10;;
71423;SDS011;59240;51.370;-0.486;2023-11-21T15:22:40;4.68;;;0.70;;
71423;SDS011;59240;51.370;-0.486;2023-11-21T15:27:37;4.82;;;0.98;;
71423;SDS011;59240;51.370;-0.486;2023-11-21T15:32:35;4.70;;;0.90;;
71423;SDS011;59240;51.370;-0.486;2023-11-21T15:37:32;6.80;;;1.40;;
71423;SDS011;59240;51.370;-0.486;2023-11-21T15:42:28;5.07;;;0.90;;
71423;SDS011;59240;51.370;-0.486;2023-11-21T15:47:25;5.90;;;0.90;;
71423;SDS011;59240;51.370;-0.486;2023-11-21T15:52:22;6.55;;;1.30;;
71423;SDS011;59240;51.370;-0.486;2023-11-21T15:57:19;4.00;;;1.42;;
71423;SDS011;59240;51.370;-0.486;2023-11-21T16:02:18;5.63;;;1.00;;
71423;SDS011;59240;51.370;-0.486;2023-11-21T16:07:18;9.15;;;1.23;;
71423;SDS011;59240;51.370;-0.486;2023-11-21T16:12:19;4.30;;;1.00;;
71423;SDS011;59240;51.370;-0.486;2023-11-21T16:17:16;6.18;;;1.33;;
71423;SDS011;59240;51.370;-0.486;2023-11-21T16:22:21;7.72;;;1.48;;
71423;SDS011;59240;51.370;-0.486;2023-11-21T16:27:19;3.42;;;1.55;;
71423;SDS011;59240;51.370;-0.486;2023-11-21T16:32:16;7.05;;;1.25;;
71423;SDS011;59240;51.370;-0.486;2023-11-21T16:37:14;5.03;;;1.20;;
71423;SDS011;59240;51.370;-0.486;2023-11-21T16:42:11;2.13;;;1.13;;
71423;SDS011;59240;51.370;-0.486;2023-11-21T16:47:10;5.20;;;1.05;;
71423;SDS011;59240;51.370;-0.486;2023-11-21T16:52:07;5.20;;;1.25;;
71423;SDS011;59240;51.370;-0.486;2023-11-21T16:57:06;5.13;;;2.53;;
71423;SDS011;59240;51.370;-0.486;2023-11-21T17:02:05;5.97;;;1.20;;
71423;SDS011;59240;51.370;-0.486;2023-11-21T17:07:02;11.02;;;1.73;;
71423;SDS011;59240;51.370;-0.486;2023-11-21T17:11:59;8.32;;;1.50;;
71423;SDS011;59240;51.370;-0.486;2023-11-21T17:16:58;3.47;;;1.40;;
71423;SDS011;59240;51.370;-0.486;2023-11-21T17:21:56;5.22;;;1.70;;
71423;SDS011;59240;51.370;-0.486;2023-11-21T17:26:53;3.75;;;1.40;;
71423;SDS011;59240;51.370;-0.486;2023-11-21T17:31:50;6.65;;;1.83;;
71423;SDS011;59240;51.370;-0.486;2023-11-21T17:36:47;8.50;;;1.58;;
71423;SDS011;59240;51.370;-0.486;2023-11-21T17:41:44;6.60;;;1.20;;
71423;SDS011;59240;51.370;-0.486;2023-11-21T17:46:41;3.25;;;1.20;;
71423;SDS011;59240;51.370;-0.486;2023-11-21T17:51:39;6.18;;;1.63;;
71423;SDS011;59240;51.370;-0.486;2023-11-21T17:56:37;1.98;;;0.88;;
71423;SDS011;59240;51.370;-0.486;2023-11-21T18:01:35;3.22;;;1.10;;
71423;SDS011;59240;51.370;-0.486;2023-11-21T18:06:34;3.38;;;0.93;;
71423;SDS011;59240;51.370;-0.486;2023-11-21T18:11:31;6.80;;;1.35;;
71423;SDS011;59240;51.370;-0.486;2023-11-21T18:16:28;4.50;;;1.52;;
71423;SDS011;59240;51.370;-0.486;2023-11-21T18:21:24;6.10;;;1.17;;
71423;SDS011;59240;51.370;-0.486;2023-11-21T18:26:21;4.00;;;1.20;;
71423;SDS011;59240;51.370;-0.486;2023-11-21T18:31:18;4.82;;;1.50;;
71423;SDS011;59240;51.370;-0.486;2023-11-21T18:36:15;3.35;;;1.27;;
71423;SDS011;59240;51.370;-0.486;2023-11-21T18:41:21;3.65;;;1.20;;
71423;SDS011;59240;51.370;-0.486;2023-11-21T18:46:20;5.05;;;1.27;;
71423;SDS011;59240;51.370;-0.486;2023-11-21T18:51:17;4.40;;;1.23;;
71423;SDS011;59240;51.370;-0.486;2023-11-21T18:56:20;3.05;;;1.20;;
71423;SDS011;59240;51.370;-0.486;2023-11-21T19:01:24;8.32;;;1.33;;
71423;SDS011;59240;51.370;-0.486;2023-11-21T19:06:24;5.55;;;1.90;;
71423;SDS011;59240;51.370;-0.486;2023-11-21T19:11:21;8.65;;;2.05;;
71423;SDS011;59240;51.370;-0.486;2023-11-21T19:16:19;4.45;;;2.17;;
71423;SDS011;59240;51.370;-0.486;2023-11-21T19:21:18;3.90;;;1.30;;
71423;SDS011;59240;51.370;-0.486;2023-11-21T19:26:17;5.20;;;1.77;;
71423;SDS011;59240;51.370;-0.486;2023-11-21T19:31:15;3.63;;;1.83;;
71423;SDS011;59240;51.370;-0.486;2023-11-21T19:36:15;5.90;;;1.50;;
71423;SDS011;59240;51.370;-0.486;2023-11-21T19:41:16;6.47;;;2.05;;
71423;SDS011;59240;51.370;-0.486;2023-11-21T19:46:17;3.53;;;1.45;;
71423;SDS011;59240;51.370;-0.486;2023-11-21T19:51:14;11.93;;;3.20;;
71423;SDS011;59240;51.370;-0.486;2023-11-21T19:56:11;8.77;;;1.65;;
71423;SDS011;59240;51.370;-0.486;2023-11-21T20:01:09;7.15;;;2.90;;
71423;SDS011;59240;51.370;-0.486;2023-11-21T20:06:06;10.07;;;1.80;;
71423;SDS011;59240;51.370;-0.486;2023-11-21T20:11:03;3.30;;;1.33;;
71423;SDS011;59240;51.370;-0.486;2023-11-21T20:16:01;5.90;;;1.75;;
71423;SDS011;59240;51.370;-0.486;2023-11-21T20:20:57;4.47;;;1.60;;
71423;SDS011;59240;51.370;-0.486;2023-11-21T20:25:54;6.13;;;1.85;;
71423;SDS011;59240;51.370;-0.486;2023-11-21T20:30:54;7.18;;;1.75;;
71423;SDS011;59240;51.370;-0.486;2023-11-21T20:35:53;7.85;;;1.75;;
71423;SDS011;59240;51.370;-0.486;2023-11-21T20:40:50;7.32;;;2.33;;
71423;SDS011;59240;51.370;-0.486;2023-11-21T20:45:47;4.53;;;1.83;;
71423;SDS011;59240;51.370;-0.486;2023-11-21T20:50:44;4.25;;;1.52;;
71423;SDS011;59240;51.370;-0.486;2023-11-21T20:55:41;5.25;;;1.33;;
71423;SDS011;59240;51.370;-0.486;2023-11-21T21:00:39;6.22;;;1.42;;
71423;SDS011;59240;51.370;-0.486;2023-11-21T21:05:36;3.78;;;1.30;;
71423;SDS011;59240;51.370;-0.486;2023-11-21T21:10:32;8.20;;;1.85;;
71423;SDS011;59240;51.370;-0.486;2023-11-21T21:15:29;5.25;;;1.25;;
71423;SDS011;59240;51.370;-0.486;2023-11-21T21:20:26;5.18;;;1.58;;
71423;SDS011;59240;51.370;-0.486;2023-11-21T21:25:23;5.13;;;2.28;;
71423;SDS011;59240;51.370;-0.486;2023-11-21T21:30:20;2.78;;;1.58;;
71423;SDS011;59240;51.370;-0.486;2023-11-21T21:35:19;6.25;;;1.48;;
71423;SDS011;59240;51.370;-0.486;2023-11-21T21:40:17;7.03;;;1.75;;
71423;SDS011;59240;51.370;-0.486;2023-11-21T21:45:14;4.55;;;1.55;;
71423;SDS011;59240;51.370;-0.486;2023-11-21T21:50:10;5.10;;;1.67;;
71423;SDS011;59240;51.370;-0.486;2023-11-21T21:55:08;5.38;;;1.50;;
71423;SDS011;59240;51.370;-0.486;2023-11-21T22:00:13;4.97;;;1.23;;
71423;SDS011;59240;51.370;-0.486;2023-11-21T22:05:12;6.38;;;1.35;;
71423;SDS011;59240;51.370;-0.486;2023-11-21T22:10:10;5.10;;;1.55;;
71423;SDS011;59240;51.370;-0.486;2023-11-21T22:15:07;3.28;;;1.40;;
71423;SDS011;59240;51.370;-0.486;2023-11-21T22:20:05;4.72;;;1.42;;
71423;SDS011;59240;51.370;-0.486;2023-11-21T22:25:04;3.45;;;1.27;;
71423;SDS011;59240;51.370;-0.486;2023-11-21T22:30:03;4.88;;;1.63;;
71423;SDS011;59240;51.370;-0.486;2023-11-21T22:35:01;4.93;;;2.10;;
71423;SDS011;59240;51.370;-0.486;2023-11-21T22:39:59;6.10;;;2.05;;
71423;SDS011;59240;51.370;-0.486;2023-11-21T22:44:56;5.90;;;1.40;;
71423;SDS011;59240;51.370;-0.486;2023-11-21T22:49:52;3.78;;;1.38;;
71423;SDS011;59240;51.370;-0.486;2023-11-21T22:54:50;4.18;;;1.65;;
71423;SDS011;59240;51.370;-0.486;2023-11-21T22:59:47;5.38;;;1.27;;
71423;SDS011;59240;51.370;-0.486;2023-11-21T23:04:49;7.03;;;2.08;;
71423;SDS011;59240;51.370;-0.486;2023-11-21T23:09:48;4.85;;;1.13;;
71423;SDS011;59240;51.370;-0.486;2023-11-21T23:14:44;7.30;;;1.23;;
71423;SDS011;59240;51.370;-0.486;2023-11-21T23:19:41;5.57;;;1.90;;
71423;SDS011;59240;51.370;-0.486;2023-11-21T23:24:46;3.53;;;1.30;;
71423;SDS011;59240;51.370;-0.486;2023-11-21T23:29:46;4.70;;;1.20;;
71423;SDS011;59240;51.370;-0.486;2023-11-21T23:34:46;7.90;;;1.45;;
71423;SDS011;59240;51.370;-0.486;2023-11-21T23:39:43;3.20;;;1.27;;
71423;SDS011;59240;51.370;-0.486;2023-11-21T23:44:39;3.03;;;1.00;;
71423;SDS011;59240;51.370;-0.486;2023-11-21T23:49:37;2.28;;;0.88;;
71423;SDS011;59240;51.370;-0.486;2023-11-21T23:54:35;5.95;;;1.42;;
71423;SDS011;59240;51.370;-0.486;2023-11-21T23:59:32;3.40;;;1.13;;
